TRA7H EHRD-LGKR
Flight info
| Callsign | TRA7H |
|---|---|
| Flight time | 2h 52m |
| Altitude | 37000 |
| Route | LUNIX Z739 MISGO DCT DOJOH DCT DODEN DCT NEGIX DCT DINKU M867 XERUM DCT BAVAX DCT RADIZ DCT KUSIB DCT TAZ DCT RODON DCT LIMJA N732 PITAS |
| Aircraft | B738/M-SDE2E3FGHIRWXY/LB1 |
Departure
| Time | 2026-05-05 16:26 |
|---|---|
| Airport | Rotterdam The Hague Airport (EHRD) |
Arrival
| Time | 2026-05-05 19:18 |
|---|---|
| Airport | Corfu Ioannis Kapodistrias International Airport (LGKR) |
| Time | Latitude | Longitude | Altitude | Speed | Heading |
|---|---|---|---|---|---|
| 2026-05-05 15:59 | 51.95142 | 4.43293 | 0 ft | 0 kts | 327° |
| 2026-05-05 16:24 | 51.95162 | 4.43204 | 1 ft | 8 kts | 248° |
| 2026-05-05 16:25 | 51.95118 | 4.43055 | 0 ft | 17 kts | 245° |
| 2026-05-05 16:25 | 51.95244 | 4.42911 | 1 ft | 15 kts | 57° |
| 2026-05-05 16:25 | 51.95321 | 4.43103 | 1 ft | 45 kts | 57° |
| 2026-05-05 16:26 | 51.96264 | 4.45484 | 628 ft | 170 kts | 56° |
| 2026-05-05 16:26 | 51.97677 | 4.49389 | 1990 ft | 209 kts | 60° |
| 2026-05-05 16:27 | 51.98336 | 4.51413 | 2735 ft | 200 kts | 61° |
| 2026-05-05 16:27 | 51.98988 | 4.53439 | 3499 ft | 199 kts | 62° |
| 2026-05-05 16:27 | 51.99614 | 4.55414 | 4254 ft | 196 kts | 62° |
| 2026-05-05 16:27 | 52.00220 | 4.57346 | 4982 ft | 194 kts | 57° |
| 2026-05-05 16:28 | 52.01291 | 4.58602 | 5717 ft | 191 kts | 14° |
| 2026-05-05 16:28 | 52.02547 | 4.59205 | 6478 ft | 192 kts | 21° |
| 2026-05-05 16:28 | 52.03784 | 4.60049 | 7191 ft | 193 kts | 23° |
| 2026-05-05 16:28 | 52.05005 | 4.60949 | 7935 ft | 193 kts | 31° |
| 2026-05-05 16:29 | 52.05986 | 4.62402 | 8693 ft | 190 kts | 47° |
| 2026-05-05 16:29 | 52.06890 | 4.63965 | 9459 ft | 190 kts | 46° |
| 2026-05-05 16:29 | 52.07827 | 4.65576 | 9955 ft | 201 kts | 46° |
| 2026-05-05 16:29 | 52.08800 | 4.67240 | 10417 ft | 206 kts | 46° |
| 2026-05-05 16:30 | 52.09822 | 4.68980 | 10762 ft | 220 kts | 46° |
| 2026-05-05 16:30 | 52.10927 | 4.70853 | 11087 ft | 238 kts | 46° |
| 2026-05-05 16:30 | 52.12108 | 4.72851 | 11503 ft | 253 kts | 46° |
| 2026-05-05 16:30 | 52.13368 | 4.74982 | 11913 ft | 269 kts | 46° |
| 2026-05-05 16:31 | 52.14705 | 4.77242 | 12330 ft | 285 kts | 46° |
| 2026-05-05 16:31 | 52.15875 | 4.79950 | 12659 ft | 304 kts | 69° |
| 2026-05-05 16:31 | 52.16528 | 4.83284 | 13191 ft | 315 kts | 73° |
| 2026-05-05 16:31 | 52.17166 | 4.86797 | 13574 ft | 331 kts | 73° |
| 2026-05-05 16:32 | 52.17835 | 4.90470 | 13966 ft | 345 kts | 73° |
| 2026-05-05 16:32 | 52.18539 | 4.94286 | 14334 ft | 358 kts | 73° |
| 2026-05-05 16:32 | 52.19275 | 4.98239 | 14706 ft | 370 kts | 73° |
| 2026-05-05 16:32 | 52.20032 | 5.02282 | 15078 ft | 375 kts | 73° |
| 2026-05-05 16:33 | 52.20539 | 5.04987 | 15323 ft | 378 kts | 73° |
| 2026-05-05 16:33 | 52.21312 | 5.09099 | 15702 ft | 381 kts | 73° |
| 2026-05-05 16:33 | 52.22091 | 5.13249 | 16077 ft | 384 kts | 73° |
| 2026-05-05 16:33 | 52.22871 | 5.17420 | 16466 ft | 385 kts | 73° |
| 2026-05-05 16:34 | 52.23595 | 5.21645 | 16815 ft | 388 kts | 81° |
| 2026-05-05 16:34 | 52.23530 | 5.26027 | 17126 ft | 388 kts | 103° |
| 2026-05-05 16:34 | 52.22582 | 5.30098 | 17569 ft | 386 kts | 122° |
| 2026-05-05 16:34 | 52.21074 | 5.33692 | 18074 ft | 383 kts | 126° |
| 2026-05-05 16:35 | 52.19594 | 5.37001 | 18381 ft | 385 kts | 127° |
| 2026-05-05 16:35 | 52.17972 | 5.40615 | 18757 ft | 386 kts | 127° |
| 2026-05-05 16:35 | 52.16391 | 5.44176 | 19109 ft | 388 kts | 127° |
| 2026-05-05 16:35 | 52.14819 | 5.47752 | 19482 ft | 389 kts | 126° |
| 2026-05-05 16:36 | 52.13248 | 5.51349 | 19835 ft | 391 kts | 126° |
| 2026-05-05 16:36 | 52.11669 | 5.54962 | 20209 ft | 392 kts | 126° |
| 2026-05-05 16:36 | 52.10088 | 5.58583 | 20577 ft | 393 kts | 126° |
| 2026-05-05 16:36 | 52.08501 | 5.62225 | 20963 ft | 395 kts | 126° |
| 2026-05-05 16:37 | 52.06909 | 5.65871 | 21350 ft | 397 kts | 126° |
| 2026-05-05 16:37 | 52.05227 | 5.69468 | 21732 ft | 402 kts | 131° |
| 2026-05-05 16:37 | 52.03386 | 5.72916 | 22154 ft | 407 kts | 132° |
| 2026-05-05 16:37 | 52.01497 | 5.76368 | 22561 ft | 411 kts | 132° |
| 2026-05-05 16:38 | 51.99603 | 5.79859 | 22971 ft | 414 kts | 132° |
| 2026-05-05 16:38 | 51.97705 | 5.83388 | 23387 ft | 416 kts | 132° |
| 2026-05-05 16:38 | 51.95803 | 5.86938 | 23748 ft | 417 kts | 132° |
| 2026-05-05 16:38 | 51.93896 | 5.90491 | 24094 ft | 419 kts | 133° |
| 2026-05-05 16:39 | 51.91982 | 5.94054 | 24444 ft | 419 kts | 133° |
| 2026-05-05 16:39 | 51.90064 | 5.97621 | 24801 ft | 420 kts | 133° |
| 2026-05-05 16:39 | 51.88145 | 6.01184 | 25157 ft | 420 kts | 134° |
| 2026-05-05 16:39 | 51.86220 | 6.04749 | 25519 ft | 420 kts | 134° |
| 2026-05-05 16:40 | 51.84291 | 6.08307 | 25894 ft | 421 kts | 134° |
| 2026-05-05 16:40 | 51.82354 | 6.11853 | 26261 ft | 421 kts | 134° |
| 2026-05-05 16:40 | 51.80409 | 6.15407 | 26643 ft | 422 kts | 134° |
| 2026-05-05 16:40 | 51.78466 | 6.18956 | 27027 ft | 422 kts | 134° |
| 2026-05-05 16:41 | 51.76519 | 6.22508 | 27416 ft | 422 kts | 134° |
| 2026-05-05 16:41 | 51.74572 | 6.26062 | 27811 ft | 422 kts | 134° |
| 2026-05-05 16:41 | 51.72625 | 6.29618 | 28211 ft | 422 kts | 134° |
| 2026-05-05 16:41 | 51.70706 | 6.33118 | 28597 ft | 422 kts | 134° |
| 2026-05-05 16:42 | 51.68764 | 6.36658 | 29013 ft | 422 kts | 134° |
| 2026-05-05 16:42 | 51.66822 | 6.40192 | 29426 ft | 421 kts | 134° |
| 2026-05-05 16:42 | 51.64875 | 6.43728 | 29849 ft | 421 kts | 134° |
| 2026-05-05 16:42 | 51.62936 | 6.47244 | 30213 ft | 419 kts | 135° |
| 2026-05-05 16:43 | 51.61004 | 6.50742 | 30589 ft | 418 kts | 135° |
| 2026-05-05 16:43 | 51.59076 | 6.54228 | 30954 ft | 416 kts | 135° |
| 2026-05-05 16:43 | 51.57160 | 6.57689 | 31333 ft | 414 kts | 136° |
| 2026-05-05 16:43 | 51.55247 | 6.61141 | 31700 ft | 412 kts | 136° |
| 2026-05-05 16:44 | 51.53348 | 6.64563 | 32092 ft | 409 kts | 136° |
| 2026-05-05 16:44 | 51.51463 | 6.67956 | 32473 ft | 405 kts | 136° |
| 2026-05-05 16:44 | 51.49590 | 6.71323 | 32867 ft | 402 kts | 136° |
| 2026-05-05 16:44 | 51.47735 | 6.74653 | 33251 ft | 399 kts | 137° |
| 2026-05-05 16:45 | 51.45895 | 6.77954 | 33664 ft | 395 kts | 137° |
| 2026-05-05 16:45 | 51.44075 | 6.81214 | 34035 ft | 391 kts | 137° |
| 2026-05-05 16:45 | 51.42270 | 6.84442 | 34378 ft | 387 kts | 137° |
| 2026-05-05 16:45 | 51.40471 | 6.87641 | 34726 ft | 384 kts | 138° |
| 2026-05-05 16:46 | 51.38616 | 6.90694 | 35081 ft | 380 kts | 140° |
| 2026-05-05 16:46 | 51.36730 | 6.93633 | 35455 ft | 377 kts | 141° |
| 2026-05-05 16:46 | 51.34840 | 6.96524 | 35819 ft | 374 kts | 141° |
| 2026-05-05 16:46 | 51.32965 | 6.99385 | 36188 ft | 371 kts | 141° |
| 2026-05-05 16:47 | 51.31111 | 7.02222 | 36570 ft | 367 kts | 140° |
| 2026-05-05 16:47 | 51.29280 | 7.05034 | 36907 ft | 365 kts | 140° |
| 2026-05-05 16:47 | 51.27427 | 7.07878 | 36786 ft | 375 kts | 140° |
| 2026-05-05 16:47 | 51.25535 | 7.10785 | 36815 ft | 380 kts | 140° |
| 2026-05-05 16:48 | 51.21684 | 7.16708 | 36836 ft | 391 kts | 140° |
| 2026-05-05 16:48 | 51.17740 | 7.22770 | 36844 ft | 402 kts | 140° |
| 2026-05-05 16:49 | 51.13667 | 7.29017 | 36835 ft | 408 kts | 140° |
| 2026-05-05 16:49 | 51.09601 | 7.35246 | 36820 ft | 401 kts | 140° |
| 2026-05-05 16:50 | 51.05616 | 7.41332 | 36816 ft | 396 kts | 140° |
| 2026-05-05 16:50 | 51.01636 | 7.47386 | 36817 ft | 397 kts | 140° |
| 2026-05-05 16:51 | 50.97646 | 7.53441 | 36826 ft | 397 kts | 140° |
| 2026-05-05 16:51 | 50.93639 | 7.59508 | 36811 ft | 398 kts | 140° |
| 2026-05-05 16:52 | 50.89629 | 7.65566 | 36811 ft | 399 kts | 140° |
| 2026-05-05 16:52 | 50.85599 | 7.71641 | 36827 ft | 400 kts | 140° |
| 2026-05-05 16:53 | 50.81551 | 7.77708 | 36821 ft | 401 kts | 140° |
| 2026-05-05 16:53 | 50.77482 | 7.83753 | 36816 ft | 402 kts | 141° |
| 2026-05-05 16:54 | 50.73432 | 7.89758 | 36839 ft | 402 kts | 141° |
| 2026-05-05 16:54 | 50.69344 | 7.95810 | 36798 ft | 403 kts | 141° |
| 2026-05-05 16:55 | 50.65257 | 8.01850 | 36826 ft | 402 kts | 141° |
| 2026-05-05 16:55 | 50.61172 | 8.07867 | 36810 ft | 402 kts | 140° |
| 2026-05-05 16:56 | 50.57436 | 8.14463 | 36871 ft | 404 kts | 132° |
| 2026-05-05 16:56 | 50.53968 | 8.21455 | 36823 ft | 405 kts | 132° |
| 2026-05-05 16:57 | 50.50478 | 8.28416 | 36812 ft | 405 kts | 132° |
| 2026-05-05 16:57 | 50.46963 | 8.35326 | 36819 ft | 404 kts | 133° |
| 2026-05-05 16:58 | 50.43441 | 8.42208 | 36802 ft | 403 kts | 133° |
| 2026-05-05 16:58 | 50.41920 | 8.45921 | 36733 ft | 414 kts | 116° |
| 2026-05-05 16:58 | 50.41193 | 8.50330 | 36832 ft | 426 kts | 98° |
| 2026-05-05 16:59 | 50.41345 | 8.55046 | 36782 ft | 441 kts | 80° |
| 2026-05-05 16:59 | 50.42420 | 8.59594 | 36854 ft | 452 kts | 63° |
| 2026-05-05 16:59 | 50.44325 | 8.63582 | 36807 ft | 462 kts | 44° |
| 2026-05-05 16:59 | 50.46915 | 8.66611 | 36788 ft | 470 kts | 28° |
| 2026-05-05 17:00 | 50.49982 | 8.68400 | 36855 ft | 473 kts | 10° |
| 2026-05-05 17:00 | 50.53266 | 8.68818 | 36767 ft | 477 kts | 353° |
| 2026-05-05 17:00 | 50.56497 | 8.67781 | 36859 ft | 475 kts | 338° |
| 2026-05-05 17:00 | 50.59560 | 8.65801 | 36843 ft | 476 kts | 332° |
| 2026-05-05 17:01 | 50.65558 | 8.61165 | 36802 ft | 483 kts | 330° |
| 2026-05-05 17:01 | 50.71533 | 8.56370 | 36797 ft | 485 kts | 330° |
| 2026-05-05 17:02 | 50.77488 | 8.51555 | 36798 ft | 477 kts | 329° |
| 2026-05-05 17:02 | 50.83375 | 8.46780 | 36827 ft | 474 kts | 330° |
| 2026-05-05 17:03 | 50.89229 | 8.41994 | 36819 ft | 473 kts | 330° |
| 2026-05-05 17:03 | 50.95077 | 8.37182 | 36811 ft | 474 kts | 329° |
| 2026-05-05 17:04 | 51.00932 | 8.32345 | 36809 ft | 475 kts | 329° |
| 2026-05-05 17:04 | 51.06796 | 8.27492 | 36827 ft | 476 kts | 329° |
| 2026-05-05 17:05 | 51.12689 | 8.22632 | 36811 ft | 477 kts | 329° |
| 2026-05-05 17:05 | 51.18556 | 8.17796 | 36824 ft | 478 kts | 329° |
| 2026-05-05 17:06 | 51.24476 | 8.12913 | 36821 ft | 479 kts | 329° |
| 2026-05-05 17:06 | 51.30550 | 8.08525 | 36749 ft | 487 kts | 347° |
| 2026-05-05 17:07 | 51.33929 | 8.08322 | 36846 ft | 489 kts | 8° |
| 2026-05-05 17:07 | 51.37181 | 8.09892 | 36824 ft | 491 kts | 28° |
| 2026-05-05 17:07 | 51.39969 | 8.12993 | 36871 ft | 488 kts | 44° |
| 2026-05-05 17:07 | 51.42227 | 8.17033 | 36791 ft | 486 kts | 58° |
| 2026-05-05 17:08 | 51.43813 | 8.21757 | 36843 ft | 480 kts | 73° |
| 2026-05-05 17:08 | 51.44566 | 8.26920 | 36843 ft | 472 kts | 90° |
| 2026-05-05 17:08 | 51.44419 | 8.32114 | 36811 ft | 465 kts | 106° |
| 2026-05-05 17:08 | 51.43417 | 8.36963 | 36858 ft | 455 kts | 121° |
| 2026-05-05 17:09 | 51.41738 | 8.41215 | 36838 ft | 448 kts | 133° |
| 2026-05-05 17:09 | 51.39555 | 8.44713 | 36797 ft | 442 kts | 147° |
| 2026-05-05 17:09 | 51.34360 | 8.49799 | 36812 ft | 439 kts | 153° |
| 2026-05-05 17:10 | 51.29064 | 8.54645 | 36814 ft | 439 kts | 153° |
| 2026-05-05 17:10 | 51.23779 | 8.59523 | 36811 ft | 439 kts | 153° |
| 2026-05-05 17:11 | 51.18516 | 8.64430 | 36802 ft | 437 kts | 153° |
| 2026-05-05 17:11 | 51.13280 | 8.69322 | 36807 ft | 436 kts | 153° |
| 2026-05-05 17:12 | 51.08055 | 8.74194 | 36799 ft | 435 kts | 153° |
| 2026-05-05 17:12 | 51.02833 | 8.79049 | 36803 ft | 434 kts | 153° |
| 2026-05-05 17:13 | 50.97623 | 8.83878 | 36796 ft | 433 kts | 153° |
| 2026-05-05 17:13 | 50.92445 | 8.88665 | 36812 ft | 433 kts | 153° |
| 2026-05-05 17:14 | 50.87227 | 8.93477 | 36794 ft | 434 kts | 153° |
| 2026-05-05 17:14 | 50.82007 | 8.98278 | 36805 ft | 434 kts | 153° |
| 2026-05-05 17:15 | 50.76786 | 9.03068 | 36790 ft | 434 kts | 153° |
| 2026-05-05 17:15 | 50.71562 | 9.07848 | 36814 ft | 433 kts | 153° |
| 2026-05-05 17:16 | 50.66337 | 9.12616 | 36795 ft | 434 kts | 153° |
| 2026-05-05 17:16 | 50.61103 | 9.17380 | 36804 ft | 434 kts | 153° |
| 2026-05-05 17:17 | 50.55914 | 9.22092 | 36811 ft | 434 kts | 153° |
| 2026-05-05 17:17 | 50.50673 | 9.26838 | 36799 ft | 434 kts | 153° |
| 2026-05-05 17:18 | 50.46289 | 9.30798 | 36808 ft | 434 kts | 153° |
| 2026-05-05 17:18 | 50.41055 | 9.35514 | 36807 ft | 434 kts | 153° |
| 2026-05-05 17:19 | 50.35813 | 9.40227 | 36815 ft | 434 kts | 153° |
| 2026-05-05 17:19 | 50.30574 | 9.44924 | 36809 ft | 434 kts | 153° |
| 2026-05-05 17:20 | 50.25334 | 9.49611 | 36825 ft | 434 kts | 153° |
| 2026-05-05 17:20 | 50.20085 | 9.54293 | 36824 ft | 434 kts | 153° |
| 2026-05-05 17:21 | 50.14839 | 9.58960 | 36804 ft | 435 kts | 153° |
| 2026-05-05 17:22 | 50.06991 | 9.65921 | 36797 ft | 434 kts | 153° |
| 2026-05-05 17:22 | 50.01742 | 9.70563 | 36803 ft | 434 kts | 153° |
| 2026-05-05 17:23 | 49.96487 | 9.75196 | 36799 ft | 434 kts | 153° |
| 2026-05-05 17:23 | 49.91235 | 9.79817 | 36796 ft | 434 kts | 153° |
| 2026-05-05 17:24 | 49.85942 | 9.84461 | 36796 ft | 435 kts | 153° |
| 2026-05-05 17:24 | 49.80713 | 9.89037 | 36811 ft | 435 kts | 153° |
| 2026-05-05 17:25 | 49.75444 | 9.93638 | 36820 ft | 435 kts | 153° |
| 2026-05-05 17:25 | 49.70161 | 9.98238 | 36794 ft | 437 kts | 153° |
| 2026-05-05 17:26 | 49.64861 | 10.02842 | 36824 ft | 437 kts | 153° |
| 2026-05-05 17:26 | 49.59565 | 10.07431 | 36824 ft | 436 kts | 153° |
| 2026-05-05 17:27 | 49.54272 | 10.12006 | 36829 ft | 436 kts | 153° |
| 2026-05-05 17:27 | 49.48976 | 10.16573 | 36833 ft | 437 kts | 153° |
| 2026-05-05 17:28 | 49.43671 | 10.21135 | 36828 ft | 437 kts | 153° |
| 2026-05-05 17:28 | 49.38355 | 10.25696 | 36838 ft | 438 kts | 153° |
| 2026-05-05 17:29 | 49.33034 | 10.30250 | 36822 ft | 438 kts | 153° |
| 2026-05-05 17:29 | 49.27709 | 10.34798 | 36833 ft | 438 kts | 154° |
| 2026-05-05 17:30 | 49.22384 | 10.39353 | 36836 ft | 439 kts | 153° |
| 2026-05-05 17:30 | 49.17134 | 10.44119 | 36864 ft | 439 kts | 152° |
| 2026-05-05 17:31 | 49.11904 | 10.48940 | 36866 ft | 439 kts | 152° |
| 2026-05-05 17:31 | 49.06658 | 10.53732 | 36864 ft | 439 kts | 152° |
| 2026-05-05 17:32 | 49.01405 | 10.58498 | 36860 ft | 440 kts | 152° |
| 2026-05-05 17:32 | 48.96142 | 10.63256 | 36855 ft | 439 kts | 153° |
| 2026-05-05 17:33 | 48.90886 | 10.67998 | 36858 ft | 440 kts | 153° |
| 2026-05-05 17:33 | 48.85628 | 10.72732 | 36856 ft | 439 kts | 153° |
| 2026-05-05 17:34 | 48.80551 | 10.77834 | 36801 ft | 445 kts | 143° |
| 2026-05-05 17:34 | 48.76284 | 10.84680 | 36847 ft | 448 kts | 136° |
| 2026-05-05 17:35 | 48.72148 | 10.91754 | 36825 ft | 449 kts | 136° |
| 2026-05-05 17:35 | 48.67982 | 10.98800 | 36833 ft | 448 kts | 136° |
| 2026-05-05 17:36 | 48.63792 | 11.05810 | 36817 ft | 449 kts | 136° |
| 2026-05-05 17:36 | 48.59587 | 11.12809 | 36799 ft | 450 kts | 137° |
| 2026-05-05 17:37 | 48.55376 | 11.19801 | 36803 ft | 450 kts | 137° |
| 2026-05-05 17:37 | 48.51150 | 11.26799 | 36804 ft | 451 kts | 137° |
| 2026-05-05 17:38 | 48.46918 | 11.33793 | 36810 ft | 451 kts | 137° |
| 2026-05-05 17:38 | 48.42673 | 11.40787 | 36800 ft | 454 kts | 137° |
| 2026-05-05 17:39 | 48.38407 | 11.47796 | 36813 ft | 455 kts | 137° |
| 2026-05-05 17:39 | 48.34155 | 11.54767 | 36804 ft | 456 kts | 137° |
| 2026-05-05 17:40 | 48.29859 | 11.61794 | 36809 ft | 456 kts | 137° |
| 2026-05-05 17:40 | 48.25536 | 11.68775 | 36790 ft | 455 kts | 139° |
| 2026-05-05 17:41 | 48.20927 | 11.75251 | 36797 ft | 454 kts | 142° |
| 2026-05-05 17:41 | 48.16219 | 11.81549 | 36810 ft | 454 kts | 142° |
| 2026-05-05 17:42 | 48.11523 | 11.87886 | 36805 ft | 455 kts | 142° |
| 2026-05-05 17:42 | 48.06844 | 11.94257 | 36805 ft | 455 kts | 142° |
| 2026-05-05 17:43 | 48.02173 | 12.00625 | 36782 ft | 455 kts | 142° |
| 2026-05-05 17:43 | 47.97496 | 12.06983 | 36808 ft | 455 kts | 142° |
| 2026-05-05 17:44 | 47.92799 | 12.13349 | 36799 ft | 456 kts | 142° |
| 2026-05-05 17:44 | 47.88126 | 12.19667 | 36801 ft | 457 kts | 142° |
| 2026-05-05 17:45 | 47.83414 | 12.26020 | 36800 ft | 457 kts | 142° |
| 2026-05-05 17:45 | 47.78694 | 12.32369 | 36805 ft | 457 kts | 142° |
| 2026-05-05 17:46 | 47.73972 | 12.38703 | 36801 ft | 457 kts | 142° |
| 2026-05-05 17:46 | 47.69254 | 12.45020 | 36792 ft | 456 kts | 142° |
| 2026-05-05 17:47 | 47.64537 | 12.51316 | 36806 ft | 456 kts | 142° |
| 2026-05-05 17:47 | 47.60025 | 12.57950 | 36827 ft | 460 kts | 136° |
| 2026-05-05 17:48 | 47.55843 | 12.65151 | 36812 ft | 461 kts | 134° |
| 2026-05-05 17:48 | 47.51675 | 12.72404 | 36807 ft | 462 kts | 135° |
| 2026-05-05 17:49 | 47.47492 | 12.79576 | 36861 ft | 457 kts | 135° |
| 2026-05-05 17:49 | 47.43282 | 12.86705 | 36831 ft | 465 kts | 135° |
| 2026-05-05 17:50 | 47.39030 | 12.93855 | 36822 ft | 466 kts | 135° |
| 2026-05-05 17:50 | 47.34756 | 13.01039 | 36840 ft | 465 kts | 135° |
| 2026-05-05 17:51 | 47.30480 | 13.08208 | 36863 ft | 465 kts | 135° |
| 2026-05-05 17:51 | 47.26200 | 13.15368 | 36864 ft | 465 kts | 135° |
| 2026-05-05 17:52 | 47.21919 | 13.22509 | 36869 ft | 465 kts | 135° |
| 2026-05-05 17:52 | 47.17634 | 13.29637 | 36890 ft | 466 kts | 135° |
| 2026-05-05 17:53 | 47.13336 | 13.36765 | 36897 ft | 466 kts | 134° |
| 2026-05-05 17:53 | 47.09037 | 13.43884 | 36942 ft | 465 kts | 134° |
| 2026-05-05 17:54 | 47.04740 | 13.50970 | 36904 ft | 465 kts | 134° |
| 2026-05-05 17:54 | 47.00445 | 13.58039 | 36935 ft | 464 kts | 135° |
| 2026-05-05 17:55 | 46.96149 | 13.65096 | 36934 ft | 465 kts | 135° |
| 2026-05-05 17:55 | 46.91826 | 13.72169 | 36927 ft | 467 kts | 135° |
| 2026-05-05 17:56 | 46.87484 | 13.79258 | 36933 ft | 469 kts | 135° |
| 2026-05-05 17:56 | 46.83123 | 13.86362 | 36910 ft | 470 kts | 135° |
| 2026-05-05 17:57 | 46.78752 | 13.93463 | 36918 ft | 471 kts | 135° |
| 2026-05-05 17:57 | 46.74403 | 14.00509 | 36921 ft | 470 kts | 135° |
| 2026-05-05 17:58 | 46.70029 | 14.07578 | 36941 ft | 469 kts | 135° |
| 2026-05-05 17:58 | 46.65650 | 14.14636 | 36931 ft | 469 kts | 135° |
| 2026-05-05 17:59 | 46.61274 | 14.21670 | 36946 ft | 468 kts | 135° |
| 2026-05-05 17:59 | 46.56896 | 14.28691 | 36907 ft | 468 kts | 135° |
| 2026-05-05 18:00 | 46.52521 | 14.35687 | 36924 ft | 468 kts | 136° |
| 2026-05-05 18:00 | 46.48142 | 14.42672 | 36947 ft | 468 kts | 135° |
| 2026-05-05 18:01 | 46.43751 | 14.49656 | 36965 ft | 467 kts | 135° |
| 2026-05-05 18:01 | 46.39364 | 14.56618 | 36971 ft | 467 kts | 135° |
| 2026-05-05 18:02 | 46.34983 | 14.63556 | 36981 ft | 467 kts | 135° |
| 2026-05-05 18:02 | 46.31332 | 14.69318 | 36979 ft | 468 kts | 136° |
| 2026-05-05 18:03 | 46.26202 | 14.77397 | 36968 ft | 470 kts | 136° |
| 2026-05-05 18:03 | 46.21771 | 14.84358 | 36969 ft | 471 kts | 136° |
| 2026-05-05 18:04 | 46.18048 | 14.90190 | 36971 ft | 470 kts | 136° |
| 2026-05-05 18:04 | 46.13610 | 14.97130 | 36976 ft | 471 kts | 136° |
| 2026-05-05 18:05 | 46.09166 | 15.04062 | 36980 ft | 471 kts | 136° |
| 2026-05-05 18:05 | 46.04748 | 15.10932 | 36978 ft | 470 kts | 136° |
| 2026-05-05 18:06 | 46.00294 | 15.17842 | 36963 ft | 471 kts | 136° |
| 2026-05-05 18:06 | 45.95838 | 15.24738 | 36959 ft | 471 kts | 136° |
| 2026-05-05 18:07 | 45.91371 | 15.31634 | 36966 ft | 472 kts | 136° |
| 2026-05-05 18:07 | 45.86894 | 15.38526 | 36967 ft | 471 kts | 136° |
| 2026-05-05 18:08 | 45.82421 | 15.45396 | 36975 ft | 471 kts | 136° |
| 2026-05-05 18:08 | 45.77935 | 15.52267 | 36958 ft | 472 kts | 136° |
| 2026-05-05 18:09 | 45.73448 | 15.59125 | 36967 ft | 471 kts | 136° |
| 2026-05-05 18:09 | 45.68959 | 15.65967 | 36966 ft | 471 kts | 136° |
| 2026-05-05 18:10 | 45.64471 | 15.72790 | 36971 ft | 471 kts | 136° |
| 2026-05-05 18:10 | 45.59979 | 15.79602 | 36969 ft | 471 kts | 136° |
| 2026-05-05 18:11 | 45.55481 | 15.86407 | 36983 ft | 471 kts | 136° |
| 2026-05-05 18:11 | 45.50973 | 15.93209 | 36986 ft | 473 kts | 136° |
| 2026-05-05 18:12 | 45.46445 | 16.00025 | 36986 ft | 473 kts | 136° |
| 2026-05-05 18:12 | 45.41909 | 16.06837 | 36977 ft | 474 kts | 137° |
| 2026-05-05 18:13 | 45.37372 | 16.13632 | 36992 ft | 474 kts | 136° |
| 2026-05-05 18:13 | 45.32819 | 16.20435 | 36977 ft | 475 kts | 136° |
| 2026-05-05 18:14 | 45.28259 | 16.27231 | 36987 ft | 475 kts | 136° |
| 2026-05-05 18:14 | 45.23695 | 16.34018 | 36981 ft | 475 kts | 136° |
| 2026-05-05 18:15 | 45.19154 | 16.40756 | 36975 ft | 476 kts | 136° |
| 2026-05-05 18:15 | 45.14471 | 16.47375 | 36960 ft | 473 kts | 144° |
| 2026-05-05 18:16 | 45.08995 | 16.52386 | 37028 ft | 468 kts | 153° |
| 2026-05-05 18:16 | 45.03372 | 16.57074 | 36996 ft | 469 kts | 153° |
| 2026-05-05 18:17 | 44.97758 | 16.61796 | 36995 ft | 470 kts | 153° |
| 2026-05-05 18:17 | 44.92144 | 16.66564 | 36988 ft | 471 kts | 152° |
| 2026-05-05 18:18 | 44.86525 | 16.71346 | 36989 ft | 472 kts | 152° |
| 2026-05-05 18:18 | 44.80901 | 16.76123 | 37004 ft | 472 kts | 152° |
| 2026-05-05 18:19 | 44.75274 | 16.80890 | 37004 ft | 473 kts | 152° |
| 2026-05-05 18:19 | 44.69671 | 16.85623 | 36990 ft | 473 kts | 153° |
| 2026-05-05 18:20 | 44.64027 | 16.90381 | 36994 ft | 473 kts | 153° |
| 2026-05-05 18:20 | 44.58371 | 16.95137 | 37003 ft | 473 kts | 153° |
| 2026-05-05 18:21 | 44.52726 | 16.99874 | 37022 ft | 473 kts | 153° |
| 2026-05-05 18:21 | 44.47073 | 17.04606 | 37029 ft | 473 kts | 153° |
| 2026-05-05 18:22 | 44.41425 | 17.09324 | 37033 ft | 472 kts | 153° |
| 2026-05-05 18:22 | 44.35770 | 17.14035 | 37035 ft | 473 kts | 153° |
| 2026-05-05 18:23 | 44.30103 | 17.18747 | 37064 ft | 474 kts | 153° |
| 2026-05-05 18:23 | 44.24432 | 17.23451 | 37057 ft | 475 kts | 153° |
| 2026-05-05 18:24 | 44.18821 | 17.28098 | 37047 ft | 460 kts | 153° |
| 2026-05-05 18:24 | 44.16117 | 17.30340 | 37032 ft | 445 kts | 153° |
| 2026-05-05 18:24 | 44.13495 | 17.32511 | 37027 ft | 431 kts | 153° |
| 2026-05-05 18:24 | 44.10960 | 17.34606 | 37049 ft | 417 kts | 153° |
| 2026-05-05 18:25 | 44.08507 | 17.36631 | 37037 ft | 403 kts | 154° |
| 2026-05-05 18:25 | 44.03724 | 17.40557 | 37069 ft | 403 kts | 154° |
| 2026-05-05 18:26 | 43.98792 | 17.44585 | 37085 ft | 419 kts | 154° |
| 2026-05-05 18:26 | 43.93733 | 17.48725 | 37068 ft | 421 kts | 154° |
| 2026-05-05 18:27 | 43.88762 | 17.52799 | 37064 ft | 411 kts | 154° |
| 2026-05-05 18:27 | 43.83825 | 17.56830 | 37084 ft | 413 kts | 154° |
| 2026-05-05 18:28 | 43.76365 | 17.62900 | 37093 ft | 416 kts | 154° |
| 2026-05-05 18:28 | 43.71353 | 17.66969 | 37090 ft | 419 kts | 154° |
| 2026-05-05 18:29 | 43.66316 | 17.71054 | 37100 ft | 420 kts | 154° |
| 2026-05-05 18:29 | 43.61263 | 17.75141 | 37090 ft | 424 kts | 154° |
| 2026-05-05 18:30 | 43.56091 | 17.79311 | 37101 ft | 437 kts | 153° |
| 2026-05-05 18:30 | 43.50744 | 17.83615 | 37095 ft | 452 kts | 153° |
| 2026-05-05 18:31 | 43.45230 | 17.88048 | 37091 ft | 465 kts | 153° |
| 2026-05-05 18:31 | 43.39566 | 17.92594 | 37082 ft | 477 kts | 153° |
| 2026-05-05 18:32 | 43.33802 | 17.97210 | 37072 ft | 486 kts | 153° |
| 2026-05-05 18:32 | 43.27959 | 18.01882 | 37075 ft | 487 kts | 153° |
| 2026-05-05 18:33 | 43.22100 | 18.06555 | 37085 ft | 487 kts | 153° |
| 2026-05-05 18:33 | 43.16244 | 18.11213 | 37078 ft | 486 kts | 153° |
| 2026-05-05 18:34 | 43.10404 | 18.15846 | 37081 ft | 484 kts | 153° |
| 2026-05-05 18:34 | 43.04576 | 18.20459 | 37080 ft | 484 kts | 153° |
| 2026-05-05 18:35 | 42.98760 | 18.25054 | 37093 ft | 483 kts | 153° |
| 2026-05-05 18:35 | 42.92936 | 18.29643 | 37086 ft | 483 kts | 153° |
| 2026-05-05 18:36 | 42.87111 | 18.34223 | 37074 ft | 483 kts | 154° |
| 2026-05-05 18:36 | 42.81295 | 18.38788 | 37084 ft | 480 kts | 153° |
| 2026-05-05 18:37 | 42.75561 | 18.43280 | 37100 ft | 474 kts | 153° |
| 2026-05-05 18:37 | 42.69831 | 18.47755 | 37068 ft | 475 kts | 153° |
| 2026-05-05 18:38 | 42.64138 | 18.52192 | 37072 ft | 476 kts | 153° |
| 2026-05-05 18:38 | 42.58382 | 18.56670 | 37072 ft | 476 kts | 154° |
| 2026-05-05 18:39 | 42.52632 | 18.61134 | 37071 ft | 476 kts | 154° |
| 2026-05-05 18:39 | 42.46832 | 18.65626 | 37088 ft | 485 kts | 154° |
| 2026-05-05 18:40 | 42.40927 | 18.70188 | 37083 ft | 492 kts | 154° |
| 2026-05-05 18:40 | 42.34969 | 18.74789 | 37082 ft | 494 kts | 154° |
| 2026-05-05 18:41 | 42.28979 | 18.79330 | 37052 ft | 490 kts | 158° |
| 2026-05-05 18:41 | 42.22639 | 18.82234 | 37128 ft | 478 kts | 169° |
| 2026-05-05 18:42 | 42.16174 | 18.84497 | 37088 ft | 482 kts | 169° |
| 2026-05-05 18:42 | 42.09676 | 18.86812 | 37079 ft | 484 kts | 169° |
| 2026-05-05 18:43 | 42.03168 | 18.89184 | 37052 ft | 485 kts | 169° |
| 2026-05-05 18:43 | 41.96658 | 18.91569 | 37073 ft | 485 kts | 169° |
| 2026-05-05 18:44 | 41.90139 | 18.93952 | 37088 ft | 485 kts | 169° |
| 2026-05-05 18:44 | 41.83664 | 18.96310 | 37061 ft | 485 kts | 169° |
| 2026-05-05 18:45 | 41.77141 | 18.98680 | 37085 ft | 485 kts | 169° |
| 2026-05-05 18:45 | 41.70624 | 19.01043 | 37079 ft | 485 kts | 169° |
| 2026-05-05 18:46 | 41.64103 | 19.03402 | 37087 ft | 485 kts | 169° |
| 2026-05-05 18:46 | 41.57581 | 19.05757 | 37077 ft | 486 kts | 169° |
| 2026-05-05 18:47 | 41.51056 | 19.08109 | 37095 ft | 486 kts | 169° |
| 2026-05-05 18:47 | 41.44522 | 19.10516 | 37064 ft | 489 kts | 166° |
| 2026-05-05 18:48 | 41.38103 | 19.13567 | 37082 ft | 491 kts | 163° |
| 2026-05-05 18:48 | 41.32799 | 19.16263 | 37093 ft | 491 kts | 163° |
| 2026-05-05 18:49 | 41.26401 | 19.19466 | 36992 ft | 489 kts | 163° |
| 2026-05-05 18:49 | 41.23192 | 19.21043 | 36159 ft | 494 kts | 164° |
| 2026-05-05 18:49 | 41.19986 | 19.22607 | 35499 ft | 484 kts | 164° |
| 2026-05-05 18:50 | 41.16858 | 19.24130 | 34847 ft | 475 kts | 165° |
| 2026-05-05 18:50 | 41.13776 | 19.25627 | 34185 ft | 468 kts | 165° |
| 2026-05-05 18:50 | 41.10740 | 19.27097 | 33475 ft | 461 kts | 165° |
| 2026-05-05 18:50 | 41.07742 | 19.28548 | 32754 ft | 456 kts | 165° |
| 2026-05-05 18:51 | 41.04782 | 19.29978 | 32054 ft | 450 kts | 166° |
| 2026-05-05 18:51 | 41.01853 | 19.31392 | 31373 ft | 445 kts | 166° |
| 2026-05-05 18:51 | 40.98957 | 19.32790 | 30715 ft | 441 kts | 166° |
| 2026-05-05 18:51 | 40.96090 | 19.34172 | 30052 ft | 437 kts | 166° |
| 2026-05-05 18:52 | 40.93246 | 19.35542 | 29283 ft | 433 kts | 166° |
| 2026-05-05 18:52 | 40.90432 | 19.36896 | 28554 ft | 429 kts | 165° |
| 2026-05-05 18:52 | 40.87641 | 19.38238 | 27844 ft | 425 kts | 165° |
| 2026-05-05 18:52 | 40.84868 | 19.39570 | 27151 ft | 422 kts | 165° |
| 2026-05-05 18:53 | 40.82122 | 19.40889 | 26476 ft | 418 kts | 165° |
| 2026-05-05 18:53 | 40.79398 | 19.42195 | 25811 ft | 415 kts | 165° |
| 2026-05-05 18:53 | 40.76699 | 19.43489 | 25163 ft | 411 kts | 164° |
| 2026-05-05 18:53 | 40.74020 | 19.44772 | 24529 ft | 408 kts | 164° |
| 2026-05-05 18:54 | 40.71360 | 19.46045 | 23905 ft | 405 kts | 164° |
| 2026-05-05 18:54 | 40.68716 | 19.47309 | 23222 ft | 403 kts | 163° |
| 2026-05-05 18:54 | 40.66132 | 19.48543 | 22518 ft | 400 kts | 163° |
| 2026-05-05 18:54 | 40.63488 | 19.49806 | 21809 ft | 396 kts | 163° |
| 2026-05-05 18:55 | 40.60946 | 19.51019 | 21131 ft | 392 kts | 163° |
| 2026-05-05 18:55 | 40.58396 | 19.52235 | 20475 ft | 388 kts | 163° |
| 2026-05-05 18:55 | 40.55873 | 19.53436 | 19814 ft | 383 kts | 162° |
| 2026-05-05 18:55 | 40.53382 | 19.54619 | 19171 ft | 379 kts | 162° |
| 2026-05-05 18:56 | 40.50918 | 19.55788 | 18541 ft | 375 kts | 162° |
| 2026-05-05 18:56 | 40.48475 | 19.56945 | 17856 ft | 371 kts | 162° |
| 2026-05-05 18:56 | 40.46059 | 19.58089 | 17149 ft | 367 kts | 162° |
| 2026-05-05 18:56 | 40.43671 | 19.59218 | 16464 ft | 364 kts | 162° |
| 2026-05-05 18:57 | 40.41300 | 19.60340 | 15790 ft | 360 kts | 162° |
| 2026-05-05 18:57 | 40.38956 | 19.61447 | 15128 ft | 357 kts | 162° |
| 2026-05-05 18:57 | 40.36634 | 19.62543 | 14488 ft | 353 kts | 162° |
| 2026-05-05 18:57 | 40.34332 | 19.63630 | 13854 ft | 350 kts | 162° |
| 2026-05-05 18:58 | 40.32054 | 19.64703 | 13303 ft | 343 kts | 162° |
| 2026-05-05 18:58 | 40.29870 | 19.65735 | 13212 ft | 328 kts | 162° |
| 2026-05-05 18:58 | 40.27719 | 19.66748 | 13102 ft | 328 kts | 162° |
| 2026-05-05 18:58 | 40.25585 | 19.67752 | 13119 ft | 325 kts | 162° |
| 2026-05-05 18:59 | 40.23446 | 19.68756 | 13094 ft | 328 kts | 162° |
| 2026-05-05 18:59 | 40.21303 | 19.69762 | 13100 ft | 327 kts | 162° |
| 2026-05-05 18:59 | 40.19162 | 19.70767 | 13096 ft | 328 kts | 162° |
| 2026-05-05 18:59 | 40.17014 | 19.71774 | 13095 ft | 328 kts | 162° |
| 2026-05-05 19:00 | 40.14871 | 19.72779 | 13102 ft | 327 kts | 162° |
| 2026-05-05 19:00 | 40.12730 | 19.73782 | 13101 ft | 327 kts | 162° |
| 2026-05-05 19:00 | 40.10589 | 19.74786 | 13107 ft | 327 kts | 162° |
| 2026-05-05 19:00 | 40.08444 | 19.75790 | 13099 ft | 328 kts | 162° |
| 2026-05-05 19:01 | 40.06297 | 19.76795 | 13095 ft | 328 kts | 162° |
| 2026-05-05 19:01 | 40.04154 | 19.77797 | 13100 ft | 327 kts | 163° |
| 2026-05-05 19:01 | 40.02016 | 19.78796 | 13105 ft | 326 kts | 163° |
| 2026-05-05 19:01 | 39.99885 | 19.79791 | 13100 ft | 325 kts | 163° |
| 2026-05-05 19:02 | 39.97760 | 19.80783 | 13102 ft | 324 kts | 162° |
| 2026-05-05 19:02 | 39.95645 | 19.81770 | 13102 ft | 323 kts | 162° |
| 2026-05-05 19:02 | 39.93531 | 19.82755 | 13101 ft | 322 kts | 162° |
| 2026-05-05 19:02 | 39.91426 | 19.83735 | 13102 ft | 321 kts | 162° |
| 2026-05-05 19:03 | 39.89318 | 19.84702 | 13103 ft | 320 kts | 165° |
| 2026-05-05 19:03 | 39.87134 | 19.84968 | 13052 ft | 315 kts | 194° |
| 2026-05-05 19:03 | 39.85199 | 19.83762 | 13003 ft | 312 kts | 222° |
| 2026-05-05 19:03 | 39.83940 | 19.81495 | 12319 ft | 313 kts | 253° |
| 2026-05-05 19:04 | 39.83787 | 19.78785 | 11791 ft | 304 kts | 282° |
| 2026-05-05 19:04 | 39.84315 | 19.76156 | 11319 ft | 297 kts | 279° |
| 2026-05-05 19:04 | 39.84094 | 19.73508 | 10653 ft | 300 kts | 246° |
| 2026-05-05 19:04 | 39.82951 | 19.71283 | 10205 ft | 296 kts | 229° |
| 2026-05-05 19:05 | 39.81535 | 19.69351 | 9615 ft | 294 kts | 227° |
| 2026-05-05 19:05 | 39.80131 | 19.67417 | 9041 ft | 293 kts | 227° |
| 2026-05-05 19:05 | 39.78710 | 19.65514 | 8458 ft | 293 kts | 224° |
| 2026-05-05 19:05 | 39.77312 | 19.63609 | 7843 ft | 292 kts | 233° |
| 2026-05-05 19:06 | 39.76184 | 19.61433 | 7330 ft | 288 kts | 238° |
| 2026-05-05 19:06 | 39.75156 | 19.59203 | 6762 ft | 288 kts | 239° |
| 2026-05-05 19:06 | 39.74144 | 19.56968 | 6271 ft | 284 kts | 238° |
| 2026-05-05 19:06 | 39.72880 | 19.55102 | 5939 ft | 273 kts | 212° |
| 2026-05-05 19:07 | 39.71097 | 19.54436 | 5607 ft | 266 kts | 182° |
| 2026-05-05 19:07 | 39.69286 | 19.54615 | 5309 ft | 258 kts | 169° |
| 2026-05-05 19:07 | 39.67560 | 19.55202 | 4979 ft | 253 kts | 165° |
| 2026-05-05 19:07 | 39.65886 | 19.55843 | 4617 ft | 250 kts | 165° |
| 2026-05-05 19:08 | 39.64229 | 19.56461 | 4258 ft | 246 kts | 165° |
| 2026-05-05 19:08 | 39.62588 | 19.57053 | 3907 ft | 243 kts | 166° |
| 2026-05-05 19:08 | 39.60969 | 19.57628 | 3560 ft | 240 kts | 166° |
| 2026-05-05 19:08 | 39.59365 | 19.58191 | 3213 ft | 237 kts | 166° |
| 2026-05-05 19:09 | 39.57796 | 19.58811 | 2887 ft | 235 kts | 155° |
| 2026-05-05 19:09 | 39.56632 | 19.60193 | 2895 ft | 228 kts | 122° |
| 2026-05-05 19:09 | 39.56020 | 19.62109 | 2875 ft | 233 kts | 107° |
| 2026-05-05 19:09 | 39.55616 | 19.64150 | 2887 ft | 235 kts | 104° |
| 2026-05-05 19:10 | 39.55240 | 19.66209 | 2876 ft | 234 kts | 104° |
| 2026-05-05 19:10 | 39.54868 | 19.68252 | 2863 ft | 233 kts | 104° |
| 2026-05-05 19:10 | 39.54492 | 19.70287 | 2875 ft | 232 kts | 104° |
| 2026-05-05 19:10 | 39.54118 | 19.72287 | 2876 ft | 232 kts | 104° |
| 2026-05-05 19:11 | 39.53730 | 19.74342 | 2867 ft | 232 kts | 105° |
| 2026-05-05 19:11 | 39.53349 | 19.76345 | 2875 ft | 232 kts | 105° |
| 2026-05-05 19:11 | 39.52962 | 19.78372 | 2877 ft | 230 kts | 105° |
| 2026-05-05 19:11 | 39.52587 | 19.80323 | 2871 ft | 216 kts | 104° |
| 2026-05-05 19:12 | 39.52234 | 19.82156 | 2877 ft | 206 kts | 104° |
| 2026-05-05 19:12 | 39.51888 | 19.83952 | 2888 ft | 205 kts | 104° |
| 2026-05-05 19:12 | 39.51541 | 19.85746 | 2891 ft | 205 kts | 104° |
| 2026-05-05 19:12 | 39.51192 | 19.87536 | 2878 ft | 204 kts | 104° |
| 2026-05-05 19:13 | 39.50848 | 19.89318 | 2876 ft | 205 kts | 104° |
| 2026-05-05 19:13 | 39.50502 | 19.91107 | 2874 ft | 205 kts | 104° |
| 2026-05-05 19:13 | 39.50155 | 19.92895 | 2882 ft | 205 kts | 104° |
| 2026-05-05 19:13 | 39.49806 | 19.94687 | 2871 ft | 205 kts | 104° |
| 2026-05-05 19:14 | 39.49457 | 19.96476 | 2884 ft | 205 kts | 104° |
| 2026-05-05 19:14 | 39.49126 | 19.98269 | 2864 ft | 205 kts | 98° |
| 2026-05-05 19:14 | 39.49429 | 20.00010 | 2857 ft | 200 kts | 50° |
| 2026-05-05 19:14 | 39.50549 | 20.00802 | 2855 ft | 176 kts | 358° |
| 2026-05-05 19:15 | 39.51517 | 20.00208 | 2826 ft | 147 kts | 309° |
| 2026-05-05 19:15 | 39.52110 | 19.99130 | 2366 ft | 143 kts | 302° |
| 2026-05-05 19:15 | 39.52617 | 19.98093 | 2085 ft | 132 kts | 301° |
| 2026-05-05 19:15 | 39.53063 | 19.97086 | 1821 ft | 127 kts | 297° |
| 2026-05-05 19:16 | 39.53459 | 19.96017 | 1507 ft | 133 kts | 295° |
| 2026-05-05 19:16 | 39.53911 | 19.94988 | 1296 ft | 130 kts | 303° |
| 2026-05-05 19:16 | 39.54434 | 19.94021 | 1084 ft | 132 kts | 304° |
| 2026-05-05 19:16 | 39.54951 | 19.93073 | 928 ft | 129 kts | 308° |
| 2026-05-05 19:17 | 39.55630 | 19.92368 | 868 ft | 133 kts | 336° |
| 2026-05-05 19:17 | 39.56561 | 19.92112 | 578 ft | 138 kts | 346° |
| 2026-05-05 19:17 | 39.57471 | 19.91875 | 389 ft | 132 kts | 350° |
| 2026-05-05 19:17 | 39.58369 | 19.91672 | 201 ft | 131 kts | 349° |
| 2026-05-05 19:18 | 39.59265 | 19.91447 | 28 ft | 130 kts | 349° |
| 2026-05-05 19:18 | 39.60062 | 19.91247 | 10 ft | 91 kts | 349° |
| 2026-05-05 19:18 | 39.60426 | 19.91155 | 7 ft | 23 kts | 352° |
| 2026-05-05 19:18 | 39.60576 | 19.91190 | 7 ft | 22 kts | 23° |
| 2026-05-05 19:19 | 39.60680 | 19.91218 | 9 ft | 0 kts | 351° |
| 2026-05-05 19:19 | 39.60681 | 19.91218 | 8 ft | 0 kts | 351° |
| 2026-05-05 19:19 | 39.60684 | 19.91218 | 8 ft | 0 kts | 351° |
| 2026-05-05 19:19 | 39.60688 | 19.91217 | 8 ft | 1 kts | 351° |
| 2026-05-05 19:20 | 39.60693 | 19.91216 | 8 ft | 1 kts | 351° |
| 2026-05-05 19:20 | 39.60700 | 19.91214 | 8 ft | 1 kts | 351° |
| 2026-05-05 19:20 | 39.60710 | 19.91212 | 8 ft | 5 kts | 351° |
| 2026-05-05 19:20 | 39.60753 | 19.91222 | 8 ft | 7 kts | 41° |
| 2026-05-05 19:21 | 39.60757 | 19.91282 | 8 ft | 7 kts | 75° |
| 2026-05-05 19:21 | 39.60766 | 19.91339 | 8 ft | 0 kts | 78° |
| 2026-05-05 19:21 | 39.60767 | 19.91343 | 8 ft | 1 kts | 78° |
| 2026-05-05 19:22 | 39.60767 | 19.91345 | 8 ft | 0 kts | 78° |